createdAt,value
2018-06-09T00:00:05.668Z,961.42
2018-06-09T00:01:05.668Z,961.17
2018-06-09T00:02:05.707Z,961.17
2018-06-09T00:03:05.692Z,961.41
2018-06-09T00:04:05.663Z,961.3
2018-06-09T00:05:05.779Z,961.25
2018-06-09T00:06:05.732Z,960.77
2018-06-09T00:07:05.688Z,961.11
2018-06-09T00:08:05.669Z,960.91
2018-06-09T00:09:05.683Z,960.92
2018-06-09T00:10:05.716Z,960.77
2018-06-09T00:11:05.696Z,960.86
2018-06-09T00:12:05.715Z,960.76
2018-06-09T00:13:05.703Z,960.78
2018-06-09T00:14:05.678Z,960.55
2018-06-09T00:15:05.710Z,960.88
2018-06-09T00:16:05.698Z,960.44
2018-06-09T00:17:05.768Z,960.55
2018-06-09T00:18:05.739Z,960.24
2018-06-09T00:19:05.722Z,960.34
2018-06-09T00:20:05.751Z,960.74
2018-06-09T00:21:05.756Z,960.11
2018-06-09T00:22:05.737Z,959.95
2018-06-09T00:23:05.729Z,960.18
2018-06-09T00:24:05.703Z,959.77
2018-06-09T00:25:05.711Z,959.96
2018-06-09T00:26:05.745Z,959.63
2018-06-09T00:27:05.736Z,959.7
2018-06-09T00:28:05.701Z,959.63
2018-06-09T00:29:05.705Z,959.54
2018-06-09T00:30:05.729Z,959.46
2018-06-09T00:31:05.720Z,959.2
2018-06-09T00:32:05.755Z,959.32
2018-06-09T00:33:05.759Z,958.98
2018-06-09T00:34:05.713Z,958.72
2018-06-09T00:35:06.103Z,959.11
2018-06-09T00:36:05.747Z,958.71
2018-06-09T00:37:05.827Z,958.9
2018-06-09T00:38:05.728Z,958.52
2018-06-09T00:39:05.773Z,958.73
2018-06-09T00:40:05.751Z,958.43
2018-06-09T00:41:05.734Z,958.25
2018-06-09T00:42:05.763Z,958.01
2018-06-09T00:43:05.774Z,958.03
2018-06-09T00:44:05.752Z,957.89
2018-06-09T00:45:05.754Z,957.8
2018-06-09T00:46:05.772Z,957.59
2018-06-09T00:47:05.750Z,957.58
2018-06-09T00:49:24.377Z,957.76
2018-06-09T00:50:24.372Z,957.45
2018-06-09T00:51:24.338Z,957.31
2018-06-09T00:52:24.366Z,957.31
2018-06-09T00:53:24.366Z,957
2018-06-09T00:54:24.363Z,957.06
2018-06-09T00:55:24.384Z,956.83
2018-06-09T00:56:24.359Z,956.79
2018-06-09T00:57:24.348Z,956.7
2018-06-09T00:58:24.380Z,956.7
2018-06-09T00:59:24.350Z,956.31
2018-06-09T01:00:24.361Z,956.32
2018-06-09T01:01:24.371Z,956.12
2018-06-09T01:02:24.384Z,956.14
2018-06-09T01:03:24.362Z,955.76
2018-06-09T01:04:24.368Z,956.57
2018-06-09T01:05:24.380Z,955.91
2018-06-09T01:06:24.383Z,955.88
2018-06-09T01:07:24.387Z,955.78
2018-06-09T01:08:24.368Z,955.78
2018-06-09T01:09:24.377Z,955.81
2018-06-09T01:10:24.372Z,955.61
2018-06-09T01:11:24.377Z,955.72
2018-06-09T01:12:24.384Z,955.55
2018-06-09T01:13:24.368Z,955.53
2018-06-09T01:14:24.377Z,955.64
2018-06-09T01:15:24.410Z,955.74
2018-06-09T01:16:24.391Z,955.44
2018-06-09T01:17:24.392Z,955.68
2018-06-09T01:18:24.422Z,954.97
2018-06-09T01:19:24.422Z,955.35
2018-06-09T01:20:24.384Z,955.34
2018-06-09T01:21:24.420Z,955.34
2018-06-09T01:22:24.384Z,955.45
2018-06-09T01:23:24.391Z,955.11
2018-06-09T01:24:24.425Z,955.11
2018-06-09T01:25:24.391Z,955.1
2018-06-09T01:26:24.405Z,955.25
2018-06-09T01:27:24.442Z,955.13
2018-06-09T01:28:24.445Z,955.02
2018-06-09T01:29:24.413Z,955.01
2018-06-09T01:30:24.430Z,954.78
2018-06-09T01:31:24.456Z,954.91
2018-06-09T01:32:24.423Z,954.52
2018-06-09T01:33:24.421Z,954.91
2018-06-09T01:34:24.433Z,954.53
2018-06-09T01:35:24.418Z,954.7
2018-06-09T01:36:24.416Z,955.01
2018-06-09T01:37:24.418Z,954.6
2018-06-09T01:38:24.433Z,954.76
2018-06-09T01:39:24.463Z,954.84
2018-06-09T01:40:24.449Z,954.54
2018-06-09T01:41:24.426Z,954.53
2018-06-09T01:42:24.437Z,954.52
2018-06-09T01:43:24.438Z,954.6
2018-06-09T01:44:24.445Z,954.5
2018-06-09T01:45:24.456Z,954.42
2018-06-09T01:46:24.476Z,954.78
2018-06-09T01:47:24.430Z,954.56
2018-06-09T01:48:24.485Z,954.34
2018-06-09T01:49:24.449Z,954.55
2018-06-09T01:50:24.464Z,954.35
2018-06-09T01:51:24.455Z,954.37
2018-06-09T01:52:24.477Z,954.34
2018-06-09T01:53:24.472Z,954.46
2018-06-09T01:54:24.453Z,954.28
2018-06-09T01:55:24.461Z,954.07
2018-06-09T01:56:24.467Z,953.87
2018-06-09T01:57:24.473Z,954.27
2018-06-09T01:58:24.477Z,954.05
2018-06-09T01:59:24.455Z,954.29
2018-06-09T02:00:24.480Z,954.19
2018-06-09T02:01:24.495Z,954.09
2018-06-09T02:02:24.482Z,954.34
2018-06-09T02:03:24.508Z,954.42
2018-06-09T02:04:24.520Z,954.18
2018-06-09T02:05:25.068Z,954.17
2018-06-09T02:06:24.480Z,954.15
2018-06-09T02:07:24.482Z,954.14
2018-06-09T02:08:24.467Z,954.04
2018-06-09T02:09:24.474Z,954.29
2018-06-09T02:10:24.474Z,954.39
2018-06-09T02:11:24.490Z,954.33
2018-06-09T02:12:24.490Z,954.3
2018-06-09T02:13:24.491Z,954.74
2018-06-09T02:14:24.490Z,954.41
2018-06-09T02:15:24.511Z,954.3
2018-06-09T02:16:24.518Z,954.23
2018-06-09T02:17:24.523Z,954.2
2018-06-09T02:18:24.483Z,954.44
2018-06-09T02:19:24.492Z,954.23
2018-06-09T02:20:24.500Z,954.09
2018-06-09T02:21:24.530Z,954.63
2018-06-09T02:22:24.513Z,954.34
2018-06-09T02:23:24.511Z,954.24
2018-06-09T02:24:24.501Z,954.44
2018-06-09T02:25:24.499Z,954.3
2018-06-09T02:26:24.562Z,954.22
2018-06-09T02:27:24.516Z,954.11
2018-06-09T02:28:24.523Z,954.32
2018-06-09T02:29:24.528Z,954.32
2018-06-09T02:30:24.539Z,954.35
2018-06-09T02:31:24.508Z,954.17
2018-06-09T02:32:24.550Z,954.29
2018-06-09T02:33:24.529Z,954.52
2018-06-09T02:34:24.509Z,954.45
2018-06-09T02:35:24.536Z,954.65
2018-06-09T02:36:24.527Z,954.77
2018-06-09T02:37:24.536Z,954.98
2018-06-09T02:38:24.537Z,954.89
2018-06-09T02:39:24.563Z,954.78
2018-06-09T02:40:24.551Z,954.79
2018-06-09T02:41:24.581Z,954.78
2018-06-09T02:42:24.540Z,954.68
2018-06-09T02:43:24.561Z,954.88
2018-06-09T02:44:24.576Z,954.79
2018-06-09T02:45:24.538Z,954.92
2018-06-09T02:46:24.559Z,954.92
2018-06-09T02:47:24.598Z,955.06
2018-06-09T02:48:24.550Z,954.89
2018-06-09T02:49:24.587Z,954.99
2018-06-09T02:50:24.565Z,955.03
2018-06-09T02:51:24.545Z,955.04
2018-06-09T02:52:24.576Z,955.16
2018-06-09T02:53:24.559Z,954.84
2018-06-09T02:54:24.572Z,955.07
2018-06-09T02:55:24.565Z,955.06
2018-06-09T02:56:24.570Z,955.1
2018-06-09T02:57:24.609Z,954.99
2018-06-09T02:58:24.560Z,955.02
2018-06-09T02:59:24.580Z,955.33
2018-06-09T03:00:24.573Z,955.25
2018-06-09T03:01:24.592Z,955.11
2018-06-09T03:02:24.558Z,955.18
2018-06-09T03:03:24.622Z,955.18
2018-06-09T03:04:24.602Z,955.06
2018-06-09T03:05:24.582Z,955.07
2018-06-09T03:06:24.584Z,955.01
2018-06-09T03:07:24.599Z,954.78
2018-06-09T03:08:24.575Z,954.87
2018-06-09T03:09:24.609Z,954.59
2018-06-09T03:10:24.597Z,954.91
2018-06-09T03:11:24.621Z,954.87
2018-06-09T03:12:24.584Z,954.75
2018-06-09T03:13:24.582Z,954.67
2018-06-09T03:14:24.624Z,954.99
2018-06-09T03:15:24.591Z,955.2
2018-06-09T03:16:24.631Z,954.58
2018-06-09T03:17:24.587Z,954.69
2018-06-09T03:18:24.619Z,954.7
2018-06-09T03:19:24.626Z,955.13
2018-06-09T03:20:24.624Z,954.83
2018-06-09T03:21:24.613Z,955.03
2018-06-09T03:22:24.635Z,954.95
2018-06-09T03:23:24.616Z,954.79
2018-06-09T03:24:24.608Z,954.96
2018-06-09T03:25:24.614Z,955.29
2018-06-09T03:26:24.615Z,955.25
2018-06-09T03:27:24.629Z,955.09
2018-06-09T03:28:24.625Z,955.47
2018-06-09T03:29:24.639Z,955.13
2018-06-09T03:30:24.626Z,955.22
2018-06-09T03:31:24.622Z,955.51
2018-06-09T03:32:24.653Z,955.2
2018-06-09T03:33:24.640Z,955.5
2018-06-09T03:35:43.442Z,955.45
2018-06-09T03:36:43.288Z,955.26
2018-06-09T03:37:43.297Z,955.52
2018-06-09T03:38:43.279Z,955.72
2018-06-09T03:39:43.284Z,955.51
2018-06-09T03:40:43.298Z,955.96
2018-06-09T03:41:43.307Z,955.52
2018-06-09T03:42:43.327Z,956
2018-06-09T03:43:43.344Z,955.91
2018-06-09T03:44:43.295Z,955.97
2018-06-09T03:45:43.303Z,955.8
2018-06-09T03:46:43.310Z,956.16
2018-06-09T03:47:43.311Z,955.88
2018-06-09T03:48:43.293Z,956.03
2018-06-09T03:49:43.304Z,955.96
2018-06-09T03:50:43.320Z,955.63
2018-06-09T03:51:43.290Z,956.34
2018-06-09T03:52:43.298Z,955.81
2018-06-09T03:53:43.304Z,956.35
2018-06-09T03:54:43.327Z,955.86
2018-06-09T03:55:43.309Z,955.96
2018-06-09T03:56:43.322Z,956.18
2018-06-09T03:57:43.325Z,955.9
2018-06-09T03:58:43.331Z,956.23
2018-06-09T03:59:43.338Z,956.58
2018-06-09T04:00:43.327Z,956.26
2018-06-09T04:01:43.329Z,956.19
2018-06-09T04:02:43.382Z,956.25
2018-06-09T04:03:43.337Z,956.04
2018-06-09T04:04:43.326Z,956.07
2018-06-09T04:05:43.351Z,956.18
2018-06-09T04:06:43.337Z,956.29
2018-06-09T04:07:43.363Z,956.29
2018-06-09T04:08:43.384Z,956.08
2018-06-09T04:09:43.431Z,956.28
2018-06-09T04:10:43.352Z,956.19
2018-06-09T04:11:43.391Z,956
2018-06-09T04:12:43.380Z,956.08
2018-06-09T04:13:43.350Z,956.22
2018-06-09T04:14:43.382Z,956.21
2018-06-09T04:15:43.342Z,955.99
2018-06-09T04:16:43.351Z,956.1
2018-06-09T04:17:43.379Z,956.14
2018-06-09T04:18:43.400Z,956.25
2018-06-09T04:19:43.389Z,956.38
2018-06-09T04:20:43.391Z,956.37
2018-06-09T04:21:43.352Z,956.5
2018-06-09T04:22:43.422Z,956.58
2018-06-09T04:23:43.389Z,956.41
2018-06-09T04:24:43.374Z,956.31
2018-06-09T04:25:43.408Z,956.21
2018-06-09T04:26:43.383Z,956.49
2018-06-09T04:27:43.372Z,956.19
2018-06-09T04:28:43.404Z,956.4
2018-06-09T04:29:43.394Z,956.42
2018-06-09T04:30:43.442Z,956.31
2018-06-09T04:31:43.373Z,956.43
2018-06-09T04:32:43.397Z,956.22
2018-06-09T04:33:43.392Z,956.68
2018-06-09T04:34:43.400Z,956.4
2018-06-09T04:35:43.390Z,956.27
2018-06-09T04:36:43.401Z,956.71
2018-06-09T04:37:43.388Z,956.41
2018-06-09T04:38:43.383Z,956.46
2018-06-09T04:39:43.406Z,956.49
2018-06-09T04:40:43.397Z,956.62
2018-06-09T04:41:43.409Z,957.05
2018-06-09T04:42:43.392Z,956.74
2018-06-09T04:43:43.466Z,956.59
2018-06-09T04:44:43.429Z,956.28
2018-06-09T04:45:43.414Z,956.7
2018-06-09T04:46:43.479Z,956.59
2018-06-09T04:47:43.396Z,956.65
2018-06-09T04:48:43.432Z,956.56
2018-06-09T04:49:43.460Z,956.36
2018-06-09T04:50:43.449Z,956.35
2018-06-09T04:51:43.432Z,956.07
2018-06-09T04:52:43.428Z,956.29
2018-06-09T04:53:43.437Z,956.28
2018-06-09T04:54:43.422Z,956.46
2018-06-09T04:55:43.456Z,956.26
2018-06-09T04:56:43.482Z,955.99
2018-06-09T04:57:43.570Z,955.94
2018-06-09T04:58:43.478Z,956.06
2018-06-09T04:59:43.472Z,956.17
2018-06-09T05:00:43.453Z,956.1
2018-06-09T05:01:43.443Z,955.99
2018-06-09T05:02:44.142Z,956
2018-06-09T05:03:43.451Z,956.18
2018-06-09T05:04:43.433Z,955.99
2018-06-09T05:05:43.464Z,955.98
2018-06-09T05:06:43.465Z,955.96
2018-06-09T05:07:43.478Z,955.79
2018-06-09T05:08:43.462Z,956.01
2018-06-09T05:09:43.495Z,956
2018-06-09T05:10:43.455Z,956.01
2018-06-09T05:11:43.451Z,955.69
2018-06-09T05:12:43.484Z,955.99
2018-06-09T05:13:43.467Z,955.99
2018-06-09T05:14:43.481Z,955.99
2018-06-09T05:15:43.489Z,955.77
2018-06-09T05:16:43.463Z,955.46
2018-06-09T05:17:43.526Z,955.89
2018-06-09T05:18:43.456Z,955.38
2018-06-09T05:19:43.487Z,955.67
2018-06-09T05:20:43.500Z,955.6
2018-06-09T05:21:43.474Z,955.83
2018-06-09T05:22:43.508Z,955.62
2018-06-09T05:23:43.497Z,955.49
2018-06-09T05:24:43.512Z,955.59
2018-06-09T05:25:43.575Z,955.71
2018-06-09T05:26:43.508Z,955.71
2018-06-09T05:27:43.524Z,955.78
2018-06-09T05:28:43.508Z,955.81
2018-06-09T05:29:43.527Z,955.91
2018-06-09T05:30:43.556Z,955.91
2018-06-09T05:31:43.558Z,956.05
2018-06-09T05:32:43.534Z,955.89
2018-06-09T05:33:43.527Z,955.69
2018-06-09T05:34:43.504Z,955.6
2018-06-09T05:35:43.515Z,955.62
2018-06-09T05:36:43.520Z,955.57
2018-06-09T05:37:43.545Z,955.81
2018-06-09T05:38:43.552Z,955.82
2018-06-09T05:39:43.560Z,955.82
2018-06-09T05:40:43.545Z,956.04
2018-06-09T05:41:43.547Z,955.99
2018-06-09T05:42:43.528Z,956.18
2018-06-09T05:43:43.508Z,956.28
2018-06-09T05:44:43.515Z,956.21
2018-06-09T05:45:59.745Z,956.54
2018-06-09T05:46:59.750Z,956.3
2018-06-09T05:47:59.709Z,956.22
2018-06-09T05:48:59.693Z,955.9
2018-06-09T05:49:59.721Z,956.21
2018-06-09T05:50:59.701Z,955.88
2018-06-09T05:51:59.730Z,956.09
2018-06-09T05:52:59.685Z,956.29
2018-06-09T05:53:59.702Z,956.39
2018-06-09T05:54:59.733Z,956.83
2018-06-09T05:55:59.745Z,956.3
2018-06-09T05:56:59.740Z,956.46
2018-06-09T05:57:59.726Z,956.74
2018-06-09T05:58:59.708Z,956.23
2018-06-09T05:59:59.710Z,956.45
2018-06-09T06:00:59.725Z,956.45
2018-06-09T06:01:59.750Z,956.47
2018-06-09T06:02:59.738Z,956.32
2018-06-09T06:03:59.787Z,956.22
2018-06-09T06:04:59.719Z,955.98
2018-06-09T06:05:59.788Z,955.92
2018-06-09T06:06:59.737Z,955.7
2018-06-09T06:07:59.764Z,955.64
2018-06-09T06:08:59.745Z,955.95
2018-06-09T06:09:59.724Z,956.08
2018-06-09T06:10:59.761Z,955.97
2018-06-09T06:12:00.721Z,955.27
2018-06-09T06:12:59.777Z,955.47
2018-06-09T06:13:59.758Z,955.69
2018-06-09T06:14:59.764Z,955.24
2018-06-09T06:15:59.785Z,955.24
2018-06-09T06:16:59.741Z,955.33
2018-06-09T06:17:59.779Z,955.1
2018-06-09T06:18:59.788Z,955.22
2018-06-09T06:19:59.766Z,955.08
2018-06-09T06:20:59.752Z,955.11
2018-06-09T06:21:59.759Z,954.85
2018-06-09T06:22:59.795Z,954.87
2018-06-09T06:23:59.785Z,954.57
2018-06-09T06:24:59.776Z,954.87
2018-06-09T06:25:59.771Z,954.55
2018-06-09T06:26:59.802Z,954.39
2018-06-09T06:27:59.769Z,954.68
2018-06-09T06:28:59.777Z,955.03
2018-06-09T06:29:59.786Z,954.62
2018-06-09T06:30:59.815Z,954.66
2018-06-09T06:31:59.863Z,954.78
2018-06-09T06:32:59.778Z,954.67
2018-06-09T06:34:09.812Z,954.45
2018-06-09T06:34:59.813Z,954.52
2018-06-09T06:35:59.799Z,954.15
2018-06-09T06:36:59.786Z,954.66
2018-06-09T06:37:59.781Z,954.55
2018-06-09T06:38:59.793Z,954.13
2018-06-09T06:39:59.793Z,954.12
2018-06-09T06:40:59.801Z,954.49
2018-06-09T06:41:59.826Z,954.49
2018-06-09T06:42:59.813Z,954.28
2018-06-09T06:43:59.823Z,954.49
2018-06-09T06:44:59.850Z,954.55
2018-06-09T06:45:59.831Z,954.75
2018-06-09T06:46:59.829Z,954.69
2018-06-09T06:47:59.821Z,954.43
2018-06-09T06:48:59.807Z,954.58
2018-06-09T06:49:59.834Z,954.5
2018-06-09T06:50:59.821Z,955.04
2018-06-09T06:51:59.857Z,954.84
2018-06-09T06:52:59.827Z,955.51
2018-06-09T06:53:59.884Z,955.21
2018-06-09T06:54:59.843Z,955.41
2018-06-09T06:55:59.859Z,955.4
2018-06-09T06:56:59.845Z,955.52
2018-06-09T06:57:59.860Z,955.42
2018-06-09T06:58:59.872Z,955.4
2018-06-09T06:59:59.828Z,954.98
2018-06-09T07:00:59.857Z,954.79
2018-06-09T07:01:59.842Z,954.88
2018-06-09T07:02:59.848Z,955
2018-06-09T07:03:59.862Z,954.67
2018-06-09T07:04:59.891Z,954.77
2018-06-09T07:05:59.852Z,954.88
2018-06-09T07:06:59.859Z,954.55
2018-06-09T07:07:59.893Z,954.44
2018-06-09T07:08:59.851Z,954.4
2018-06-09T07:09:59.859Z,954.26
2018-06-09T07:10:59.880Z,954.29
2018-06-09T07:11:59.867Z,954.39
2018-06-09T07:12:59.877Z,954.09
2018-06-09T07:13:59.866Z,954.26
2018-06-09T07:14:59.903Z,954.06
2018-06-09T07:15:59.876Z,954.07
2018-06-09T07:16:59.875Z,953.97
2018-06-09T07:17:59.878Z,953.65
2018-06-09T07:22:29.197Z,953.57
2018-06-09T07:23:29.154Z,953.8
2018-06-09T07:24:29.139Z,953.53
2018-06-09T07:25:29.159Z,953.61
2018-06-09T07:26:29.156Z,953.44
2018-06-09T07:27:29.252Z,953.21
2018-06-09T07:28:29.154Z,953.23
2018-06-09T07:29:29.166Z,953.28
2018-06-09T07:30:29.141Z,952.86
2018-06-09T07:31:29.147Z,952.97
2018-06-09T07:32:29.195Z,952.86
2018-06-09T07:33:29.161Z,952.74
2018-06-09T07:34:29.157Z,952.17
2018-06-09T07:35:29.178Z,952.49
2018-06-09T07:36:29.182Z,952.47
2018-06-09T07:37:29.239Z,952.55
2018-06-09T07:38:29.171Z,952.65
2018-06-09T07:39:29.175Z,952.23
2018-06-09T07:40:29.179Z,951.95
2018-06-09T07:41:29.175Z,952.55
2018-06-09T07:42:29.229Z,951.71
2018-06-09T07:43:29.202Z,951.69
2018-06-09T07:44:29.189Z,951.84
2018-06-09T07:45:29.213Z,951.73
2018-06-09T07:46:29.171Z,951.5
2018-06-09T07:47:29.278Z,951.72
2018-06-09T07:48:29.216Z,951.38
2018-06-09T07:49:29.205Z,951.28
2018-06-09T07:51:47.938Z,950.84
2018-06-09T07:52:48.464Z,950.54
2018-06-09T07:53:47.944Z,950.96
2018-06-09T07:54:47.940Z,950.75
2018-06-09T07:55:47.966Z,950.86
2018-06-09T07:56:47.953Z,950.7
2018-06-09T07:57:47.954Z,950.65
2018-06-09T07:58:47.960Z,950.66
2018-06-09T07:59:47.949Z,951.06
2018-06-09T08:00:47.948Z,950.63
2018-06-09T08:01:47.943Z,950.92
2018-06-09T08:02:47.934Z,950.77
2018-06-09T08:03:47.942Z,950.92
2018-06-09T08:04:47.946Z,950.86
2018-06-09T08:05:47.974Z,951.08
2018-06-09T08:06:48.010Z,951.6
2018-06-09T08:07:47.942Z,951.84
2018-06-09T08:08:47.960Z,951.43
2018-06-09T08:09:47.942Z,951.47
2018-06-09T08:10:47.962Z,951.67
2018-06-09T08:11:47.957Z,951.84
2018-06-09T08:12:47.948Z,951.63
2018-06-09T08:13:47.997Z,951.41
2018-06-09T08:14:47.963Z,951.39
2018-06-09T08:15:47.942Z,951.4
2018-06-09T08:16:47.955Z,951.45
2018-06-09T08:17:47.981Z,951.27
2018-06-09T08:18:47.964Z,951.01
2018-06-09T08:19:47.998Z,951.18
2018-06-09T08:20:48.038Z,951.12
2018-06-09T08:21:47.978Z,951.31
2018-06-09T08:22:47.998Z,951.1
2018-06-09T08:23:47.979Z,951.2
2018-06-09T08:24:47.970Z,950.81
2018-06-09T08:25:48.040Z,950.78
2018-06-09T08:26:47.979Z,951.1
2018-06-09T08:27:48.000Z,951.11
2018-06-09T08:28:48.032Z,950.82
2018-06-09T08:29:48.006Z,950.94
2018-06-09T08:30:48.014Z,951.35
2018-06-09T08:31:48.022Z,951.06
2018-06-09T08:32:48.006Z,951.23
2018-06-09T08:33:48.021Z,951.23
2018-06-09T08:34:48.014Z,951.3
2018-06-09T08:35:48.023Z,951.16
2018-06-09T08:36:47.983Z,951.39
2018-06-09T08:37:47.981Z,951.16
2018-06-09T08:38:48.025Z,951.32
2018-06-09T08:39:48.029Z,951.18
2018-06-09T08:40:48.000Z,951.33
2018-06-09T08:41:48.033Z,951.73
2018-06-09T08:42:48.017Z,951.65
2018-06-09T08:43:48.031Z,952.07
2018-06-09T08:44:48.040Z,952.4
2018-06-09T08:45:48.067Z,952.76
2018-06-09T08:46:48.105Z,952.22
2018-06-09T08:47:48.074Z,952.35
2018-06-09T08:48:48.010Z,952.32
2018-06-09T08:49:48.019Z,952.26
2018-06-09T08:50:48.045Z,952.77
2018-06-09T08:51:48.084Z,952.29
2018-06-09T08:52:48.071Z,951.8
2018-06-09T08:53:48.042Z,952.52
2018-06-09T08:54:48.033Z,952.19
2018-06-09T08:55:48.027Z,952.24
2018-06-09T08:56:48.115Z,952.54
2018-06-09T08:57:48.040Z,952.53
2018-06-09T08:58:48.027Z,952.63
2018-06-09T08:59:48.050Z,952.5
2018-06-09T09:00:48.059Z,952.42
2018-06-09T09:01:48.086Z,952.72
2018-06-09T09:02:48.041Z,952.51
2018-06-09T09:03:48.031Z,953.01
2018-06-09T09:04:48.069Z,952.91
2018-06-09T09:05:48.076Z,952.76
2018-06-09T09:06:48.067Z,952.79
2018-06-09T09:07:48.074Z,952.91
2018-06-09T09:08:48.111Z,953.04
2018-06-09T09:09:48.069Z,952.85
2018-06-09T09:10:48.103Z,952.93
2018-06-09T09:11:48.079Z,952.95
2018-06-09T09:12:48.561Z,952.85
2018-06-09T09:13:48.098Z,953.13
2018-06-09T09:18:16.902Z,953.37
2018-06-09T09:19:16.903Z,953.3
2018-06-09T09:20:16.907Z,953.49
2018-06-09T09:21:16.910Z,953.58
2018-06-09T09:22:16.873Z,953.48
2018-06-09T09:23:16.888Z,953.48
2018-06-09T09:24:16.876Z,953.47
2018-06-09T09:25:16.885Z,953.83
2018-06-09T09:26:16.889Z,953.36
2018-06-09T09:27:16.923Z,953.57
2018-06-09T09:28:16.875Z,953.58
2018-06-09T09:29:16.898Z,953.55
2018-06-09T09:30:16.905Z,953.48
2018-06-09T09:31:16.900Z,953.47
2018-06-09T09:32:16.935Z,953.56
2018-06-09T09:33:16.887Z,953.87
2018-06-09T09:34:16.924Z,953.67
2018-06-09T09:35:16.931Z,953.67
2018-06-09T09:36:16.911Z,954.13
2018-06-09T09:37:16.912Z,953.82
2018-06-09T09:41:44.999Z,953.97
2018-06-09T09:42:44.975Z,954.01
2018-06-09T09:43:45.000Z,954.31
2018-06-09T09:44:44.996Z,954.3
2018-06-09T09:45:44.973Z,954.27
2018-06-09T09:46:44.980Z,953.97
2018-06-09T09:47:45.011Z,954.37
2018-06-09T09:48:45.017Z,954.39
2018-06-09T09:49:45.033Z,954.59
2018-06-09T09:50:44.987Z,954.2
2018-06-09T09:51:44.989Z,954.19
2018-06-09T09:52:44.997Z,954.06
2018-06-09T09:53:45.024Z,954.48
2018-06-09T09:54:45.014Z,954.38
2018-06-09T09:57:03.644Z,954.17
2018-06-09T09:58:03.602Z,954.45
2018-06-09T09:59:03.626Z,954.14
2018-06-09T10:00:03.606Z,954.35
2018-06-09T10:01:03.605Z,954.25
2018-06-09T10:02:03.584Z,954.12
2018-06-09T10:03:03.597Z,954.22
2018-06-09T10:04:04.242Z,954.09
2018-06-09T10:05:03.597Z,954.22
2018-06-09T10:06:03.617Z,954.6
2018-06-09T10:07:03.623Z,954.2
2018-06-09T10:08:03.610Z,954.09
2018-06-09T10:09:03.640Z,953.97
2018-06-09T10:10:03.640Z,953.93
2018-06-09T10:11:03.619Z,953.63
2018-06-09T10:12:03.634Z,953.39
2018-06-09T10:13:03.647Z,953.29
2018-06-09T10:14:03.615Z,953.15
2018-06-09T10:15:03.636Z,953.17
2018-06-09T10:16:03.614Z,953.09
2018-06-09T10:17:03.623Z,953.19
2018-06-09T10:18:03.617Z,952.97
2018-06-09T10:19:03.665Z,952.97
2018-06-09T10:20:03.630Z,952.76
2018-06-09T10:21:03.637Z,953.03
2018-06-09T10:22:03.616Z,952.77
2018-06-09T10:23:03.637Z,952.77
2018-06-09T10:24:03.674Z,953.03
2018-06-09T10:25:03.625Z,952.78
2018-06-09T10:26:03.645Z,952.86
2018-06-09T10:27:03.656Z,952.7
2018-06-09T10:28:03.639Z,952.85
2018-06-09T10:29:03.645Z,952.83
2018-06-09T10:30:03.646Z,952.8
2018-06-09T10:31:03.624Z,952.69
2018-06-09T10:32:03.636Z,953.01
2018-06-09T10:33:03.665Z,952.9
2018-06-09T10:34:03.671Z,952.69
2018-06-09T10:35:03.658Z,953.02
2018-06-09T10:36:03.683Z,952.86
2018-06-09T10:37:03.666Z,952.89
2018-06-09T10:38:03.659Z,952.84
2018-06-09T10:39:03.702Z,952.75
2018-06-09T10:40:03.680Z,952.82
2018-06-09T10:41:03.662Z,952.92
2018-06-09T10:42:03.670Z,952.82
2018-06-09T10:43:03.687Z,953.02
2018-06-09T10:44:03.671Z,952.68
2018-06-09T10:45:03.689Z,952.69
2018-06-09T10:46:03.703Z,952.76
2018-06-09T10:47:03.708Z,953
2018-06-09T10:48:03.689Z,952.81
2018-06-09T10:49:03.687Z,952.6
2018-06-09T10:50:03.713Z,952.83
2018-06-09T10:51:03.682Z,952.81
2018-06-09T10:52:03.688Z,953
2018-06-09T10:53:03.696Z,952.91
2018-06-09T10:54:03.678Z,952.81
2018-06-09T10:55:03.698Z,952.7
2018-06-09T10:56:03.688Z,952.68
2018-06-09T10:57:03.699Z,952.64
2018-06-09T10:58:03.702Z,952.87
2018-06-09T10:59:03.738Z,952.74
2018-06-09T11:00:03.717Z,952.87
2018-06-09T11:01:03.725Z,952.68
2018-06-09T11:02:03.702Z,952.7
2018-06-09T11:03:03.683Z,952.85
2018-06-09T11:04:03.720Z,952.72
2018-06-09T11:05:03.720Z,952.79
2018-06-09T11:06:03.696Z,952.77
2018-06-09T11:07:03.715Z,952.66
2018-06-09T11:08:03.715Z,952.76
2018-06-09T11:09:03.716Z,952.5
2018-06-09T11:10:03.747Z,952.65
2018-06-09T11:11:03.708Z,952.73
2018-06-09T11:12:03.712Z,952.51
2018-06-09T11:13:03.735Z,952.96
2018-06-09T11:14:03.721Z,952.6
2018-06-09T11:15:03.721Z,952.57
2018-06-09T11:16:03.715Z,952.14
2018-06-09T11:17:03.724Z,952.43
2018-06-09T11:18:03.753Z,952.24
2018-06-09T11:19:03.733Z,952.58
2018-06-09T11:20:03.715Z,952.44
2018-06-09T11:21:03.745Z,952.43
2018-06-09T11:22:03.754Z,952.46
2018-06-09T11:23:03.738Z,952.38
2018-06-09T11:24:03.792Z,952.31
2018-06-09T11:25:03.724Z,952.39
2018-06-09T11:26:03.751Z,952.34
2018-06-09T11:27:03.771Z,952.17
2018-06-09T11:28:03.773Z,952.47
2018-06-09T11:29:03.758Z,952.41
2018-06-09T11:30:03.732Z,952.44
2018-06-09T11:31:03.767Z,952.2
2018-06-09T11:32:03.762Z,952.6
2018-06-09T11:33:03.785Z,952.39
2018-06-09T11:34:03.781Z,952.41
2018-06-09T11:35:03.763Z,951.97
2018-06-09T11:36:03.782Z,952.12
2018-06-09T11:37:03.784Z,952.39
2018-06-09T11:38:03.789Z,952.38
2018-06-09T11:39:03.769Z,952.08
2018-06-09T11:44:21.357Z,952.39
2018-06-09T11:44:32.863Z,952.38
2018-06-09T11:45:32.840Z,952.23
2018-06-09T11:46:32.849Z,952.31
2018-06-09T11:47:32.851Z,952.31
2018-06-09T11:48:32.834Z,952.34
2018-06-09T11:49:32.858Z,952.3
2018-06-09T11:50:32.897Z,952.42
2018-06-09T11:51:32.876Z,952.01
2018-06-09T11:52:32.854Z,952.09
2018-06-09T11:53:32.865Z,952.08
2018-06-09T11:54:32.877Z,952.27
2018-06-09T11:59:01.874Z,952.2
2018-06-09T12:00:01.997Z,952.01
2018-06-09T12:01:01.894Z,952.25
2018-06-09T12:02:01.874Z,952.4
2018-06-09T12:03:01.881Z,952.14
2018-06-09T12:04:01.880Z,952.16
2018-06-09T12:05:01.889Z,952.17
2018-06-09T12:06:01.896Z,951.91
2018-06-09T12:07:01.881Z,952.13
2018-06-09T12:08:01.910Z,951.87
2018-06-09T12:09:01.855Z,951.95
2018-06-09T12:10:01.868Z,952.28
2018-06-09T12:11:01.883Z,951.73
2018-06-09T12:12:01.849Z,951.81
2018-06-09T12:13:01.859Z,951.81
2018-06-09T12:14:01.921Z,951.88
2018-06-09T12:15:01.877Z,951.77
2018-06-09T12:16:01.874Z,951.89
2018-06-09T12:17:01.858Z,951.79
2018-06-09T12:18:01.869Z,951.57
2018-06-09T12:19:01.878Z,951.82
2018-06-09T12:20:01.983Z,951.76
2018-06-09T12:21:01.910Z,952.09
2018-06-09T12:22:01.866Z,951.81
2018-06-09T12:23:01.982Z,951.79
2018-06-09T12:24:01.959Z,951.69
2018-06-09T12:25:01.952Z,951.64
2018-06-09T12:26:01.946Z,951.73
2018-06-09T12:27:01.923Z,951.74
2018-06-09T12:28:01.907Z,951.37
2018-06-09T12:29:01.898Z,951.66
2018-06-09T12:30:01.920Z,951.57
2018-06-09T12:31:01.925Z,951.23
2018-06-09T12:32:01.903Z,951.56
2018-06-09T12:33:01.988Z,951.26
2018-06-09T12:34:01.928Z,951.31
2018-06-09T12:35:01.978Z,951.35
2018-06-09T12:36:01.926Z,951.17
2018-06-09T12:37:01.963Z,951.31
2018-06-09T12:38:01.960Z,950.8
2018-06-09T12:39:01.941Z,951.44
2018-06-09T12:40:02.000Z,951.41
2018-06-09T12:41:01.949Z,951.06
2018-06-09T12:42:01.945Z,951.16
2018-06-09T12:43:01.925Z,951.21
2018-06-09T12:44:01.942Z,951.29
2018-06-09T12:45:01.919Z,951.49
2018-06-09T12:46:01.926Z,950.78
2018-06-09T12:47:01.976Z,951.08
2018-06-09T12:48:01.964Z,950.97
2018-06-09T12:49:01.949Z,950.98
2018-06-09T12:50:01.924Z,950.85
2018-06-09T12:51:02.026Z,950.93
2018-06-09T12:52:02.040Z,950.8
2018-06-09T12:53:01.931Z,950.48
2018-06-09T12:54:01.912Z,950.99